sensor_id;sensor_type;location;lat;lon;timestamp;temperature;humidity
11540;DHT22;5826;54.756;9.192;2023-05-29T00:02:00;10.80;98.20
11540;DHT22;5826;54.756;9.192;2023-05-29T00:04:26;10.90;98.40
11540;DHT22;5826;54.756;9.192;2023-05-29T00:06:51;10.80;98.40
11540;DHT22;5826;54.756;9.192;2023-05-29T00:09:17;10.80;98.30
11540;DHT22;5826;54.756;9.192;2023-05-29T00:11:43;10.80;98.40
11540;DHT22;5826;54.756;9.192;2023-05-29T00:14:08;10.80;98.50
11540;DHT22;5826;54.756;9.192;2023-05-29T00:16:38;10.80;98.40
11540;DHT22;5826;54.756;9.192;2023-05-29T00:19:03;10.80;98.60
11540;DHT22;5826;54.756;9.192;2023-05-29T00:21:29;10.80;98.60
11540;DHT22;5826;54.756;9.192;2023-05-29T00:23:54;10.80;98.70
11540;DHT22;5826;54.756;9.192;2023-05-29T00:26:20;10.80;98.60
11540;DHT22;5826;54.756;9.192;2023-05-29T00:28:46;10.80;98.50
11540;DHT22;5826;54.756;9.192;2023-05-29T00:31:11;10.80;98.50
11540;DHT22;5826;54.756;9.192;2023-05-29T00:33:37;10.70;98.60
11540;DHT22;5826;54.756;9.192;2023-05-29T00:36:02;10.70;98.60
11540;DHT22;5826;54.756;9.192;2023-05-29T00:38:28;10.70;98.60
11540;DHT22;5826;54.756;9.192;2023-05-29T00:40:53;10.70;98.60
11540;DHT22;5826;54.756;9.192;2023-05-29T00:43:19;10.70;98.80
11540;DHT22;5826;54.756;9.192;2023-05-29T00:45:44;10.70;98.80
11540;DHT22;5826;54.756;9.192;2023-05-29T00:48:10;10.70;98.90
11540;DHT22;5826;54.756;9.192;2023-05-29T00:50:36;10.70;98.80
11540;DHT22;5826;54.756;9.192;2023-05-29T00:53:02;10.70;98.90
11540;DHT22;5826;54.756;9.192;2023-05-29T00:55:31;10.70;98.90
11540;DHT22;5826;54.756;9.192;2023-05-29T00:57:56;10.70;98.90
11540;DHT22;5826;54.756;9.192;2023-05-29T01:00:22;10.60;99.00
11540;DHT22;5826;54.756;9.192;2023-05-29T01:02:48;10.70;99.00
11540;DHT22;5826;54.756;9.192;2023-05-29T01:05:14;10.70;99.00
11540;DHT22;5826;54.756;9.192;2023-05-29T01:07:44;10.70;98.90
11540;DHT22;5826;54.756;9.192;2023-05-29T01:10:10;10.60;99.00
11540;DHT22;5826;54.756;9.192;2023-05-29T01:12:59;10.70;99.00
11540;DHT22;5826;54.756;9.192;2023-05-29T01:15:51;10.60;98.90
11540;DHT22;5826;54.756;9.192;2023-05-29T01:18:27;10.60;99.20
11540;DHT22;5826;54.756;9.192;2023-05-29T01:24:27;10.60;99.20
11540;DHT22;5826;54.756;9.192;2023-05-29T01:27:01;10.60;99.20
11540;DHT22;5826;54.756;9.192;2023-05-29T01:29:29;10.50;99.30
11540;DHT22;5826;54.756;9.192;2023-05-29T01:31:58;10.50;99.30
11540;DHT22;5826;54.756;9.192;2023-05-29T01:34:24;10.50;99.20
11540;DHT22;5826;54.756;9.192;2023-05-29T01:36:50;10.60;99.10
11540;DHT22;5826;54.756;9.192;2023-05-29T01:39:16;10.50;99.30
11540;DHT22;5826;54.756;9.192;2023-05-29T01:41:43;10.40;99.10
11540;DHT22;5826;54.756;9.192;2023-05-29T01:44:10;10.40;99.20
11540;DHT22;5826;54.756;9.192;2023-05-29T01:46:38;10.30;99.40
11540;DHT22;5826;54.756;9.192;2023-05-29T01:49:04;10.40;99.40
11540;DHT22;5826;54.756;9.192;2023-05-29T01:51:30;10.30;99.20
11540;DHT22;5826;54.756;9.192;2023-05-29T01:53:57;10.30;99.30
11540;DHT22;5826;54.756;9.192;2023-05-29T01:56:24;10.30;99.40
11540;DHT22;5826;54.756;9.192;2023-05-29T01:58:53;10.30;99.30
11540;DHT22;5826;54.756;9.192;2023-05-29T02:01:20;10.30;99.40
11540;DHT22;5826;54.756;9.192;2023-05-29T02:03:46;10.30;99.40
11540;DHT22;5826;54.756;9.192;2023-05-29T02:06:12;10.30;99.40
11540;DHT22;5826;54.756;9.192;2023-05-29T02:08:37;10.20;99.30
11540;DHT22;5826;54.756;9.192;2023-05-29T02:11:03;10.20;99.60
11540;DHT22;5826;54.756;9.192;2023-05-29T02:13:28;10.20;99.50
11540;DHT22;5826;54.756;9.192;2023-05-29T02:15:54;10.20;99.50
11540;DHT22;5826;54.756;9.192;2023-05-29T02:18:19;10.20;99.40
11540;DHT22;5826;54.756;9.192;2023-05-29T02:20:45;10.20;99.30
11540;DHT22;5826;54.756;9.192;2023-05-29T02:23:11;10.10;99.60
11540;DHT22;5826;54.756;9.192;2023-05-29T02:25:37;10.10;99.60
11540;DHT22;5826;54.756;9.192;2023-05-29T02:28:04;10.10;99.70
11540;DHT22;5826;54.756;9.192;2023-05-29T02:30:29;10.20;99.80
11540;DHT22;5826;54.756;9.192;2023-05-29T02:32:55;10.20;99.60
11540;DHT22;5826;54.756;9.192;2023-05-29T02:35:20;10.20;99.80
11540;DHT22;5826;54.756;9.192;2023-05-29T02:37:48;10.20;99.60
11540;DHT22;5826;54.756;9.192;2023-05-29T02:40:14;10.20;99.50
11540;DHT22;5826;54.756;9.192;2023-05-29T02:42:39;10.20;99.70
11540;DHT22;5826;54.756;9.192;2023-05-29T02:45:05;10.10;99.70
11540;DHT22;5826;54.756;9.192;2023-05-29T02:47:31;10.20;99.90
11540;DHT22;5826;54.756;9.192;2023-05-29T02:49:56;10.30;99.70
11540;DHT22;5826;54.756;9.192;2023-05-29T02:52:22;10.30;99.70
11540;DHT22;5826;54.756;9.192;2023-05-29T02:54:48;10.30;99.70
11540;DHT22;5826;54.756;9.192;2023-05-29T02:57:14;10.30;99.90
11540;DHT22;5826;54.756;9.192;2023-05-29T02:59:39;10.30;99.90
11540;DHT22;5826;54.756;9.192;2023-05-29T03:02:05;10.30;99.90
11540;DHT22;5826;54.756;9.192;2023-05-29T03:04:31;10.30;99.90
11540;DHT22;5826;54.756;9.192;2023-05-29T03:06:56;10.30;99.90
11540;DHT22;5826;54.756;9.192;2023-05-29T03:09:22;10.30;99.90
11540;DHT22;5826;54.756;9.192;2023-05-29T03:11:47;10.30;99.80
11540;DHT22;5826;54.756;9.192;2023-05-29T03:14:15;10.20;99.90
11540;DHT22;5826;54.756;9.192;2023-05-29T03:16:40;10.30;99.90
11540;DHT22;5826;54.756;9.192;2023-05-29T03:19:06;10.30;99.90
11540;DHT22;5826;54.756;9.192;2023-05-29T03:21:33;10.30;99.90
11540;DHT22;5826;54.756;9.192;2023-05-29T03:23:58;10.30;99.90
11540;DHT22;5826;54.756;9.192;2023-05-29T03:26:24;10.30;99.90
11540;DHT22;5826;54.756;9.192;2023-05-29T03:28:51;10.30;99.90
11540;DHT22;5826;54.756;9.192;2023-05-29T03:31:16;10.40;99.90
11540;DHT22;5826;54.756;9.192;2023-05-29T03:33:42;10.40;99.90
11540;DHT22;5826;54.756;9.192;2023-05-29T03:36:07;10.30;99.90
11540;DHT22;5826;54.756;9.192;2023-05-29T03:38:33;10.30;99.90
11540;DHT22;5826;54.756;9.192;2023-05-29T03:40:58;10.30;99.90
11540;DHT22;5826;54.756;9.192;2023-05-29T03:43:24;10.30;99.90
11540;DHT22;5826;54.756;9.192;2023-05-29T03:45:49;10.20;99.90
11540;DHT22;5826;54.756;9.192;2023-05-29T03:48:15;10.20;99.90
11540;DHT22;5826;54.756;9.192;2023-05-29T03:50:41;10.20;99.90
11540;DHT22;5826;54.756;9.192;2023-05-29T03:53:06;10.20;99.90
11540;DHT22;5826;54.756;9.192;2023-05-29T03:55:31;10.30;99.90
11540;DHT22;5826;54.756;9.192;2023-05-29T03:57:57;10.30;99.90
11540;DHT22;5826;54.756;9.192;2023-05-29T04:00:22;10.30;99.90
11540;DHT22;5826;54.756;9.192;2023-05-29T04:02:48;10.40;99.90
11540;DHT22;5826;54.756;9.192;2023-05-29T04:05:13;10.40;99.90
11540;DHT22;5826;54.756;9.192;2023-05-29T04:07:39;10.40;99.90
11540;DHT22;5826;54.756;9.192;2023-05-29T04:10:06;10.30;99.90
11540;DHT22;5826;54.756;9.192;2023-05-29T04:12:32;10.40;99.90
11540;DHT22;5826;54.756;9.192;2023-05-29T04:14:58;10.40;99.90
11540;DHT22;5826;54.756;9.192;2023-05-29T04:17:24;10.40;99.90
11540;DHT22;5826;54.756;9.192;2023-05-29T04:19:49;10.50;99.90
11540;DHT22;5826;54.756;9.192;2023-05-29T04:22:15;10.60;99.90
11540;DHT22;5826;54.756;9.192;2023-05-29T04:24:41;10.50;99.90
11540;DHT22;5826;54.756;9.192;2023-05-29T04:27:08;10.50;99.90
11540;DHT22;5826;54.756;9.192;2023-05-29T04:29:34;10.50;99.90
11540;DHT22;5826;54.756;9.192;2023-05-29T04:32:00;10.50;99.90
11540;DHT22;5826;54.756;9.192;2023-05-29T04:34:29;10.50;99.90
11540;DHT22;5826;54.756;9.192;2023-05-29T04:36:58;10.60;99.90
11540;DHT22;5826;54.756;9.192;2023-05-29T04:39:24;10.60;99.90
11540;DHT22;5826;54.756;9.192;2023-05-29T04:41:50;10.70;99.90
11540;DHT22;5826;54.756;9.192;2023-05-29T04:44:17;10.70;99.90
11540;DHT22;5826;54.756;9.192;2023-05-29T04:46:42;10.80;99.90
11540;DHT22;5826;54.756;9.192;2023-05-29T04:49:09;10.90;99.90
11540;DHT22;5826;54.756;9.192;2023-05-29T04:51:35;10.90;99.90
11540;DHT22;5826;54.756;9.192;2023-05-29T04:54:01;11.00;99.90
11540;DHT22;5826;54.756;9.192;2023-05-29T04:56:28;11.00;99.90
11540;DHT22;5826;54.756;9.192;2023-05-29T04:58:53;11.00;99.90
11540;DHT22;5826;54.756;9.192;2023-05-29T05:01:19;11.00;99.90
11540;DHT22;5826;54.756;9.192;2023-05-29T05:03:44;11.10;99.90
11540;DHT22;5826;54.756;9.192;2023-05-29T05:06:10;11.10;99.90
11540;DHT22;5826;54.756;9.192;2023-05-29T05:08:36;11.10;99.90
11540;DHT22;5826;54.756;9.192;2023-05-29T05:11:02;11.20;99.90
11540;DHT22;5826;54.756;9.192;2023-05-29T05:13:27;11.20;99.90
11540;DHT22;5826;54.756;9.192;2023-05-29T05:15:53;11.20;99.90
11540;DHT22;5826;54.756;9.192;2023-05-29T05:18:19;11.30;99.90
11540;DHT22;5826;54.756;9.192;2023-05-29T05:20:45;11.30;99.90
11540;DHT22;5826;54.756;9.192;2023-05-29T05:23:11;11.30;99.90
11540;DHT22;5826;54.756;9.192;2023-05-29T05:25:37;11.30;99.90
11540;DHT22;5826;54.756;9.192;2023-05-29T05:28:07;11.30;99.90
11540;DHT22;5826;54.756;9.192;2023-05-29T05:30:33;11.40;99.90
11540;DHT22;5826;54.756;9.192;2023-05-29T05:32:58;11.40;99.90
11540;DHT22;5826;54.756;9.192;2023-05-29T05:35:24;11.50;99.90
11540;DHT22;5826;54.756;9.192;2023-05-29T05:37:50;11.50;99.90
11540;DHT22;5826;54.756;9.192;2023-05-29T05:40:15;11.50;99.90
11540;DHT22;5826;54.756;9.192;2023-05-29T05:42:41;11.50;99.90
11540;DHT22;5826;54.756;9.192;2023-05-29T05:45:07;11.50;99.90
11540;DHT22;5826;54.756;9.192;2023-05-29T05:47:33;11.60;99.90
11540;DHT22;5826;54.756;9.192;2023-05-29T05:49:58;11.60;99.90
11540;DHT22;5826;54.756;9.192;2023-05-29T05:52:25;11.60;99.90
11540;DHT22;5826;54.756;9.192;2023-05-29T05:54:51;11.60;99.90
11540;DHT22;5826;54.756;9.192;2023-05-29T05:57:16;11.60;99.90
11540;DHT22;5826;54.756;9.192;2023-05-29T05:59:42;11.60;99.90
11540;DHT22;5826;54.756;9.192;2023-05-29T06:02:07;11.70;99.90
11540;DHT22;5826;54.756;9.192;2023-05-29T06:04:33;11.70;99.90
11540;DHT22;5826;54.756;9.192;2023-05-29T06:06:58;11.80;99.90
11540;DHT22;5826;54.756;9.192;2023-05-29T06:09:24;11.90;99.90
11540;DHT22;5826;54.756;9.192;2023-05-29T06:11:51;12.00;99.90
11540;DHT22;5826;54.756;9.192;2023-05-29T06:14:16;12.10;99.90
11540;DHT22;5826;54.756;9.192;2023-05-29T06:16:42;12.20;99.90
11540;DHT22;5826;54.756;9.192;2023-05-29T06:19:08;12.30;99.90
11540;DHT22;5826;54.756;9.192;2023-05-29T06:21:34;12.30;99.90
11540;DHT22;5826;54.756;9.192;2023-05-29T06:23:59;12.40;99.90
11540;DHT22;5826;54.756;9.192;2023-05-29T06:26:25;12.50;99.90
11540;DHT22;5826;54.756;9.192;2023-05-29T06:28:51;12.60;99.90
11540;DHT22;5826;54.756;9.192;2023-05-29T06:31:16;12.60;99.90
11540;DHT22;5826;54.756;9.192;2023-05-29T06:33:42;12.60;99.90
11540;DHT22;5826;54.756;9.192;2023-05-29T06:36:08;12.70;99.90
11540;DHT22;5826;54.756;9.192;2023-05-29T06:38:33;12.70;99.90
11540;DHT22;5826;54.756;9.192;2023-05-29T06:40:59;12.70;99.90
11540;DHT22;5826;54.756;9.192;2023-05-29T06:43:24;12.70;99.90
11540;DHT22;5826;54.756;9.192;2023-05-29T06:45:50;12.80;99.80
11540;DHT22;5826;54.756;9.192;2023-05-29T06:48:16;12.90;99.90
11540;DHT22;5826;54.756;9.192;2023-05-29T06:50:41;13.00;99.90
11540;DHT22;5826;54.756;9.192;2023-05-29T06:53:07;13.00;99.90
11540;DHT22;5826;54.756;9.192;2023-05-29T06:55:32;13.10;99.90
11540;DHT22;5826;54.756;9.192;2023-05-29T06:57:58;13.20;99.90
11540;DHT22;5826;54.756;9.192;2023-05-29T07:00:23;13.20;99.80
11540;DHT22;5826;54.756;9.192;2023-05-29T07:02:49;13.30;99.70
11540;DHT22;5826;54.756;9.192;2023-05-29T07:05:16;13.30;99.90
11540;DHT22;5826;54.756;9.192;2023-05-29T07:07:41;13.50;99.80
11540;DHT22;5826;54.756;9.192;2023-05-29T07:10:07;13.50;99.80
11540;DHT22;5826;54.756;9.192;2023-05-29T07:12:33;13.50;99.90
11540;DHT22;5826;54.756;9.192;2023-05-29T07:14:58;13.50;99.60
11540;DHT22;5826;54.756;9.192;2023-05-29T07:17:23;13.60;99.80
11540;DHT22;5826;54.756;9.192;2023-05-29T07:19:49;13.60;99.90
11540;DHT22;5826;54.756;9.192;2023-05-29T07:22:15;13.60;99.90
11540;DHT22;5826;54.756;9.192;2023-05-29T07:24:41;13.70;99.70
11540;DHT22;5826;54.756;9.192;2023-05-29T07:27:06;13.80;99.90
11540;DHT22;5826;54.756;9.192;2023-05-29T07:29:32;13.80;99.60
11540;DHT22;5826;54.756;9.192;2023-05-29T07:31:58;13.90;99.90
11540;DHT22;5826;54.756;9.192;2023-05-29T07:34:23;13.90;99.70
11540;DHT22;5826;54.756;9.192;2023-05-29T07:37:01;14.00;99.90
11540;DHT22;5826;54.756;9.192;2023-05-29T07:39:28;14.00;99.80
11540;DHT22;5826;54.756;9.192;2023-05-29T07:41:53;14.00;99.30
11540;DHT22;5826;54.756;9.192;2023-05-29T07:44:19;14.10;98.90
11540;DHT22;5826;54.756;9.192;2023-05-29T07:46:45;14.20;99.20
11540;DHT22;5826;54.756;9.192;2023-05-29T07:49:11;14.20;99.30
11540;DHT22;5826;54.756;9.192;2023-05-29T07:51:36;14.30;99.50
11540;DHT22;5826;54.756;9.192;2023-05-29T07:54:02;14.30;99.20
11540;DHT22;5826;54.756;9.192;2023-05-29T07:56:28;14.40;99.00
11540;DHT22;5826;54.756;9.192;2023-05-29T07:58:53;14.50;98.90
11540;DHT22;5826;54.756;9.192;2023-05-29T08:01:20;14.60;99.20
11540;DHT22;5826;54.756;9.192;2023-05-29T08:03:46;14.70;99.00
11540;DHT22;5826;54.756;9.192;2023-05-29T08:06:12;14.70;98.90
11540;DHT22;5826;54.756;9.192;2023-05-29T08:08:38;14.80;98.70
11540;DHT22;5826;54.756;9.192;2023-05-29T08:11:04;14.90;98.70
11540;DHT22;5826;54.756;9.192;2023-05-29T08:13:30;15.00;98.50
11540;DHT22;5826;54.756;9.192;2023-05-29T08:15:56;15.00;98.30
11540;DHT22;5826;54.756;9.192;2023-05-29T08:18:25;15.40;98.50
11540;DHT22;5826;54.756;9.192;2023-05-29T08:20:51;15.10;98.10
11540;DHT22;5826;54.756;9.192;2023-05-29T08:23:16;15.20;98.20
11540;DHT22;5826;54.756;9.192;2023-05-29T08:25:42;15.20;97.90
11540;DHT22;5826;54.756;9.192;2023-05-29T08:28:07;15.20;97.60
11540;DHT22;5826;54.756;9.192;2023-05-29T08:30:33;15.40;97.70
11540;DHT22;5826;54.756;9.192;2023-05-29T08:32:58;15.50;97.70
11540;DHT22;5826;54.756;9.192;2023-05-29T08:35:24;15.60;97.50
11540;DHT22;5826;54.756;9.192;2023-05-29T08:37:49;15.70;97.60
11540;DHT22;5826;54.756;9.192;2023-05-29T08:40:15;15.80;97.30
11540;DHT22;5826;54.756;9.192;2023-05-29T08:42:53;15.80;97.10
11540;DHT22;5826;54.756;9.192;2023-05-29T08:45:22;15.80;96.90
11540;DHT22;5826;54.756;9.192;2023-05-29T08:47:53;15.80;97.30
11540;DHT22;5826;54.756;9.192;2023-05-29T08:50:22;15.80;97.10
11540;DHT22;5826;54.756;9.192;2023-05-29T08:52:48;15.80;97.10
11540;DHT22;5826;54.756;9.192;2023-05-29T08:55:14;15.80;97.20
11540;DHT22;5826;54.756;9.192;2023-05-29T08:57:40;15.80;97.30
11540;DHT22;5826;54.756;9.192;2023-05-29T09:00:09;15.90;97.20
11540;DHT22;5826;54.756;9.192;2023-05-29T09:02:45;16.00;97.30
11540;DHT22;5826;54.756;9.192;2023-05-29T09:05:14;16.10;97.30
11540;DHT22;5826;54.756;9.192;2023-05-29T09:07:40;16.50;97.10
11540;DHT22;5826;54.756;9.192;2023-05-29T09:10:06;16.20;97.00
11540;DHT22;5826;54.756;9.192;2023-05-29T09:12:33;16.30;97.20
11540;DHT22;5826;54.756;9.192;2023-05-29T09:14:58;16.30;96.90
11540;DHT22;5826;54.756;9.192;2023-05-29T09:17:24;16.40;96.90
11540;DHT22;5826;54.756;9.192;2023-05-29T09:19:55;16.50;97.00
11540;DHT22;5826;54.756;9.192;2023-05-29T09:22:20;16.50;96.70
11540;DHT22;5826;54.756;9.192;2023-05-29T09:24:47;16.50;96.70
11540;DHT22;5826;54.756;9.192;2023-05-29T09:27:13;16.60;96.80
11540;DHT22;5826;54.756;9.192;2023-05-29T09:29:40;16.70;96.90
11540;DHT22;5826;54.756;9.192;2023-05-29T09:32:16;16.70;96.30
11540;DHT22;5826;54.756;9.192;2023-05-29T09:34:42;16.70;96.50
11540;DHT22;5826;54.756;9.192;2023-05-29T09:37:09;16.70;96.00
11540;DHT22;5826;54.756;9.192;2023-05-29T09:39:45;16.70;96.20
11540;DHT22;5826;54.756;9.192;2023-05-29T09:42:12;16.90;96.50
11540;DHT22;5826;54.756;9.192;2023-05-29T09:44:39;17.00;96.00
11540;DHT22;5826;54.756;9.192;2023-05-29T09:47:04;17.00;95.90
11540;DHT22;5826;54.756;9.192;2023-05-29T09:49:31;17.10;95.80
11540;DHT22;5826;54.756;9.192;2023-05-29T09:51:58;17.10;95.50
11540;DHT22;5826;54.756;9.192;2023-05-29T09:54:29;17.30;95.60
11540;DHT22;5826;54.756;9.192;2023-05-29T09:56:56;17.40;95.70
11540;DHT22;5826;54.756;9.192;2023-05-29T09:59:24;17.50;95.40
11540;DHT22;5826;54.756;9.192;2023-05-29T10:02:00;17.50;95.40
11540;DHT22;5826;54.756;9.192;2023-05-29T10:04:25;17.50;95.50
11540;DHT22;5826;54.756;9.192;2023-05-29T10:06:51;17.60;95.60
11540;DHT22;5826;54.756;9.192;2023-05-29T10:09:19;17.60;95.40
11540;DHT22;5826;54.756;9.192;2023-05-29T10:11:48;17.80;95.80
11540;DHT22;5826;54.756;9.192;2023-05-29T10:14:18;17.80;95.50
11540;DHT22;5826;54.756;9.192;2023-05-29T10:16:46;17.90;95.50
11540;DHT22;5826;54.756;9.192;2023-05-29T10:19:19;18.00;95.60
11540;DHT22;5826;54.756;9.192;2023-05-29T10:21:47;18.00;95.50
11540;DHT22;5826;54.756;9.192;2023-05-29T10:24:14;18.00;95.00
11540;DHT22;5826;54.756;9.192;2023-05-29T10:26:43;18.00;95.00
11540;DHT22;5826;54.756;9.192;2023-05-29T10:37:36;18.30;95.70
11540;DHT22;5826;54.756;9.192;2023-05-29T10:40:07;18.40;95.20
11540;DHT22;5826;54.756;9.192;2023-05-29T10:42:47;18.60;95.30
11540;DHT22;5826;54.756;9.192;2023-05-29T10:47:54;19.00;95.00
11540;DHT22;5826;54.756;9.192;2023-05-29T10:53:00;19.10;94.60
11540;DHT22;5826;54.756;9.192;2023-05-29T10:55:34;19.10;95.20
11540;DHT22;5826;54.756;9.192;2023-05-29T10:58:23;19.00;94.60
11540;DHT22;5826;54.756;9.192;2023-05-29T11:00:53;18.90;94.60
11540;DHT22;5826;54.756;9.192;2023-05-29T11:03:25;18.90;94.80
11540;DHT22;5826;54.756;9.192;2023-05-29T11:06:02;19.00;95.10
11540;DHT22;5826;54.756;9.192;2023-05-29T11:08:44;19.00;94.40
11540;DHT22;5826;54.756;9.192;2023-05-29T11:11:14;19.00;94.70
11540;DHT22;5826;54.756;9.192;2023-05-29T11:13:40;19.10;94.60
11540;DHT22;5826;54.756;9.192;2023-05-29T11:16:11;19.20;94.80
11540;DHT22;5826;54.756;9.192;2023-05-29T11:18:44;19.20;94.70
11540;DHT22;5826;54.756;9.192;2023-05-29T11:21:34;19.30;94.60
11540;DHT22;5826;54.756;9.192;2023-05-29T11:24:04;19.50;94.60
11540;DHT22;5826;54.756;9.192;2023-05-29T11:26:33;19.60;94.00
11540;DHT22;5826;54.756;9.192;2023-05-29T11:29:05;19.70;94.00
11540;DHT22;5826;54.756;9.192;2023-05-29T11:31:37;19.80;94.30
11540;DHT22;5826;54.756;9.192;2023-05-29T11:34:03;20.00;93.80
11540;DHT22;5826;54.756;9.192;2023-05-29T11:36:32;20.10;93.80
11540;DHT22;5826;54.756;9.192;2023-05-29T11:38:58;20.30;94.20
11540;DHT22;5826;54.756;9.192;2023-05-29T11:41:24;20.30;93.60
11540;DHT22;5826;54.756;9.192;2023-05-29T11:43:58;20.30;94.00
11540;DHT22;5826;54.756;9.192;2023-05-29T11:46:23;20.30;93.90
11540;DHT22;5826;54.756;9.192;2023-05-29T11:48:51;20.40;94.20
11540;DHT22;5826;54.756;9.192;2023-05-29T11:51:17;20.50;94.30
11540;DHT22;5826;54.756;9.192;2023-05-29T11:53:43;20.50;93.60
11540;DHT22;5826;54.756;9.192;2023-05-29T11:56:12;20.50;93.30
11540;DHT22;5826;54.756;9.192;2023-05-29T11:58:38;20.60;94.00
11540;DHT22;5826;54.756;9.192;2023-05-29T12:01:05;20.60;93.50
11540;DHT22;5826;54.756;9.192;2023-05-29T12:03:41;20.60;93.20
11540;DHT22;5826;54.756;9.192;2023-05-29T12:06:11;20.70;93.50
11540;DHT22;5826;54.756;9.192;2023-05-29T12:08:37;20.70;93.30
11540;DHT22;5826;54.756;9.192;2023-05-29T12:11:04;20.60;93.10
11540;DHT22;5826;54.756;9.192;2023-05-29T12:13:29;20.50;93.40
11540;DHT22;5826;54.756;9.192;2023-05-29T12:16:00;20.50;93.30
11540;DHT22;5826;54.756;9.192;2023-05-29T12:18:28;20.80;94.00
11540;DHT22;5826;54.756;9.192;2023-05-29T12:20:57;21.00;93.50
11540;DHT22;5826;54.756;9.192;2023-05-29T12:23:23;21.20;93.40
11540;DHT22;5826;54.756;9.192;2023-05-29T12:25:51;21.30;93.50
11540;DHT22;5826;54.756;9.192;2023-05-29T12:28:17;21.40;93.20
11540;DHT22;5826;54.756;9.192;2023-05-29T12:30:44;21.20;93.00
11540;DHT22;5826;54.756;9.192;2023-05-29T12:33:32;21.10;92.30
11540;DHT22;5826;54.756;9.192;2023-05-29T12:36:08;21.00;92.80
11540;DHT22;5826;54.756;9.192;2023-05-29T12:38:50;21.00;92.30
11540;DHT22;5826;54.756;9.192;2023-05-29T12:41:29;21.00;93.20
11540;DHT22;5826;54.756;9.192;2023-05-29T12:44:00;21.10;92.80
11540;DHT22;5826;54.756;9.192;2023-05-29T12:46:27;21.10;93.40
11540;DHT22;5826;54.756;9.192;2023-05-29T12:48:54;21.20;92.80
11540;DHT22;5826;54.756;9.192;2023-05-29T12:51:24;21.20;93.20
11540;DHT22;5826;54.756;9.192;2023-05-29T12:53:50;21.20;93.10
11540;DHT22;5826;54.756;9.192;2023-05-29T12:56:16;21.20;93.50
11540;DHT22;5826;54.756;9.192;2023-05-29T12:58:42;21.40;93.40
11540;DHT22;5826;54.756;9.192;2023-05-29T13:01:12;21.40;92.80
11540;DHT22;5826;54.756;9.192;2023-05-29T13:03:39;21.40;92.70
11540;DHT22;5826;54.756;9.192;2023-05-29T13:06:05;21.40;93.00
11540;DHT22;5826;54.756;9.192;2023-05-29T13:08:31;21.50;93.40
11540;DHT22;5826;54.756;9.192;2023-05-29T13:10:56;21.60;93.30
11540;DHT22;5826;54.756;9.192;2023-05-29T13:13:22;21.70;92.90
11540;DHT22;5826;54.756;9.192;2023-05-29T13:15:47;21.60;92.00
11540;DHT22;5826;54.756;9.192;2023-05-29T13:18:13;21.60;92.00
11540;DHT22;5826;54.756;9.192;2023-05-29T13:20:38;21.60;92.40
11540;DHT22;5826;54.756;9.192;2023-05-29T13:23:04;21.70;92.00
11540;DHT22;5826;54.756;9.192;2023-05-29T13:25:29;21.80;91.90
11540;DHT22;5826;54.756;9.192;2023-05-29T13:27:55;22.00;91.70
11540;DHT22;5826;54.756;9.192;2023-05-29T13:30:20;22.10;91.60
11540;DHT22;5826;54.756;9.192;2023-05-29T13:32:47;22.20;91.20
11540;DHT22;5826;54.756;9.192;2023-05-29T13:35:13;22.10;91.40
11540;DHT22;5826;54.756;9.192;2023-05-29T13:37:39;22.20;91.30
11540;DHT22;5826;54.756;9.192;2023-05-29T13:40:05;22.30;91.20
11540;DHT22;5826;54.756;9.192;2023-05-29T13:42:32;22.50;91.60
11540;DHT22;5826;54.756;9.192;2023-05-29T13:44:57;22.60;91.00
11540;DHT22;5826;54.756;9.192;2023-05-29T13:47:23;22.60;91.30
11540;DHT22;5826;54.756;9.192;2023-05-29T13:49:49;22.70;91.00
11540;DHT22;5826;54.756;9.192;2023-05-29T13:52:15;23.00;90.70
11540;DHT22;5826;54.756;9.192;2023-05-29T13:54:41;23.20;91.30
11540;DHT22;5826;54.756;9.192;2023-05-29T13:57:07;23.20;90.80
11540;DHT22;5826;54.756;9.192;2023-05-29T13:59:33;23.00;90.90
11540;DHT22;5826;54.756;9.192;2023-05-29T14:01:59;23.00;90.70
11540;DHT22;5826;54.756;9.192;2023-05-29T14:04:25;23.10;90.60
11540;DHT22;5826;54.756;9.192;2023-05-29T14:06:51;23.30;90.50
11540;DHT22;5826;54.756;9.192;2023-05-29T14:09:17;23.30;90.80
11540;DHT22;5826;54.756;9.192;2023-05-29T14:11:47;23.60;90.00
11540;DHT22;5826;54.756;9.192;2023-05-29T14:14:13;23.70;90.50
11540;DHT22;5826;54.756;9.192;2023-05-29T14:16:38;23.70;90.30
11540;DHT22;5826;54.756;9.192;2023-05-29T14:19:04;23.70;90.30
11540;DHT22;5826;54.756;9.192;2023-05-29T14:21:29;23.60;90.20
11540;DHT22;5826;54.756;9.192;2023-05-29T14:23:55;23.60;90.50
11540;DHT22;5826;54.756;9.192;2023-05-29T14:26:21;23.60;90.30
11540;DHT22;5826;54.756;9.192;2023-05-29T14:28:46;23.40;90.40
11540;DHT22;5826;54.756;9.192;2023-05-29T14:31:12;23.10;90.10
11540;DHT22;5826;54.756;9.192;2023-05-29T14:33:37;22.90;90.80
11540;DHT22;5826;54.756;9.192;2023-05-29T14:36:03;22.80;90.20
11540;DHT22;5826;54.756;9.192;2023-05-29T14:38:28;22.90;90.60
11540;DHT22;5826;54.756;9.192;2023-05-29T14:40:54;23.10;90.10
11540;DHT22;5826;54.756;9.192;2023-05-29T14:43:20;23.30;90.20
11540;DHT22;5826;54.756;9.192;2023-05-29T14:45:45;23.50;89.70
11540;DHT22;5826;54.756;9.192;2023-05-29T14:48:11;23.40;90.60
11540;DHT22;5826;54.756;9.192;2023-05-29T14:50:37;23.50;90.80
11540;DHT22;5826;54.756;9.192;2023-05-29T14:53:03;23.20;90.30
11540;DHT22;5826;54.756;9.192;2023-05-29T14:55:28;22.80;90.70
11540;DHT22;5826;54.756;9.192;2023-05-29T14:57:54;22.50;91.50
11540;DHT22;5826;54.756;9.192;2023-05-29T15:00:19;22.40;91.80
11540;DHT22;5826;54.756;9.192;2023-05-29T15:02:45;22.50;91.30
11540;DHT22;5826;54.756;9.192;2023-05-29T15:05:10;22.40;91.60
11540;DHT22;5826;54.756;9.192;2023-05-29T15:07:36;22.30;92.00
11540;DHT22;5826;54.756;9.192;2023-05-29T15:10:02;22.20;91.20
11540;DHT22;5826;54.756;9.192;2023-05-29T15:12:29;22.10;91.60
11540;DHT22;5826;54.756;9.192;2023-05-29T15:14:54;22.10;91.30
11540;DHT22;5826;54.756;9.192;2023-05-29T15:17:20;22.00;91.40
11540;DHT22;5826;54.756;9.192;2023-05-29T15:19:45;22.10;91.30
11540;DHT22;5826;54.756;9.192;2023-05-29T15:22:10;22.20;91.40
11540;DHT22;5826;54.756;9.192;2023-05-29T15:24:36;22.40;91.50
11540;DHT22;5826;54.756;9.192;2023-05-29T15:27:02;22.40;91.50
11540;DHT22;5826;54.756;9.192;2023-05-29T15:29:35;22.10;91.20
11540;DHT22;5826;54.756;9.192;2023-05-29T15:32:02;22.00;91.70
11540;DHT22;5826;54.756;9.192;2023-05-29T15:34:27;22.00;91.40
11540;DHT22;5826;54.756;9.192;2023-05-29T15:36:53;22.00;91.40
11540;DHT22;5826;54.756;9.192;2023-05-29T15:39:19;21.80;91.40
11540;DHT22;5826;54.756;9.192;2023-05-29T15:41:45;22.00;91.80
11540;DHT22;5826;54.756;9.192;2023-05-29T15:44:10;22.00;91.90
11540;DHT22;5826;54.756;9.192;2023-05-29T15:46:36;22.00;91.60
11540;DHT22;5826;54.756;9.192;2023-05-29T15:49:01;22.00;91.40
11540;DHT22;5826;54.756;9.192;2023-05-29T15:51:27;22.00;91.50
11540;DHT22;5826;54.756;9.192;2023-05-29T15:53:53;22.00;91.80
11540;DHT22;5826;54.756;9.192;2023-05-29T15:56:19;21.90;92.00
11540;DHT22;5826;54.756;9.192;2023-05-29T15:58:50;21.80;91.10
11540;DHT22;5826;54.756;9.192;2023-05-29T16:01:15;21.70;91.30